Time;durP1;ratioP1;P1;durP2;ratioP2;P2;SDS_P1;SDS_P2;PMS_P1;PMS_P2;Temp;Humidity;BMP_temperature;BMP_pressure;BME280_temperature;BME280_humidity;BME280_pressure;Samples;Min_cycle;Max_cycle;Signal;HPM_P1;HPM_P2
2022/02/06 00:02:27;;;;;;;8.45;3.85;;;7.20;96.30;;;;;;4996848;28;20073;-83
2022/02/06 00:04:56;;;;;;;11.05;5.55;;;7.20;96.40;;;;;;5012648;28;20136;-83
2022/02/06 00:07:23;;;;;;;11.10;4.07;;;7.20;96.50;;;;;;4997084;28;20056;-80
2022/02/06 00:09:50;;;;;;;6.63;4.43;;;7.20;96.50;;;;;;4964444;28;20053;-82
2022/02/06 00:12:32;;;;;;;10.13;4.35;;;7.30;96.50;;;;;;4983837;28;20054;-82
2022/02/06 00:15:03;;;;;;;8.77;4.60;;;7.20;96.60;;;;;;5012886;28;20156;-83
2022/02/06 00:17:31;;;;;;;13.35;3.67;;;7.30;96.60;;;;;;4996566;28;20185;-83
2022/02/06 00:19:58;;;;;;;9.15;3.50;;;7.30;96.60;;;;;;4981229;28;20042;-82
2022/02/06 00:22:31;;;;;;;10.43;3.28;;;7.30;96.50;;;;;;4996830;28;20050;-83
2022/02/06 00:25:15;;;;;;;10.75;4.18;;;7.30;96.50;;;;;;5012647;28;20137;-81
2022/02/06 00:33:04;;;;;;;12.20;4.85;;;7.30;96.50;;;;;;5012780;28;20038;-83
2022/02/06 00:43:11;;;;;;;9.63;4.40;;;7.30;96.60;;;;;;5012608;28;20042;-80
2022/02/06 00:45:39;;;;;;;10.63;4.97;;;7.30;96.50;;;;;;4995649;28;20320;-82
2022/02/06 00:48:06;;;;;;;9.90;4.93;;;7.30;96.60;;;;;;4995659;28;20096;-82
2022/02/06 00:50:36;;;;;;;12.63;4.50;;;7.30;96.60;;;;;;5013071;28;20128;-81
2022/02/06 00:53:07;;;;;;;8.15;4.40;;;7.40;96.60;;;;;;4996218;28;20045;-82
2022/02/06 00:55:35;;;;;;;13.88;5.20;;;7.40;96.60;;;;;;4995867;28;20409;-82
2022/02/06 00:58:02;;;;;;;13.48;5.30;;;7.30;96.60;;;;;;4963418;28;20046;-82
2022/02/06 01:00:29;;;;;;;12.15;4.57;;;7.40;96.70;;;;;;4979907;28;20042;-81
2022/02/06 01:02:56;;;;;;;10.65;3.60;;;7.40;96.60;;;;;;4963816;28;20120;-82
2022/02/06 01:05:43;;;;;;;11.75;5.05;;;7.40;96.60;;;;;;4998966;28;20200;-81
2022/02/06 01:08:10;;;;;;;10.45;4.32;;;7.40;96.70;;;;;;4995519;28;20119;-82
2022/02/06 01:10:37;;;;;;;12.30;4.40;;;7.40;96.70;;;;;;4979516;28;20050;-82
2022/02/06 01:13:20;;;;;;;11.63;4.13;;;7.40;96.70;;;;;;4995878;28;20466;-79
2022/02/06 01:15:56;;;;;;;10.43;4.13;;;7.40;96.70;;;;;;4995902;28;20048;-81
2022/02/06 01:18:30;;;;;;;9.23;4.45;;;7.40;96.70;;;;;;4997065;28;20049;-79
2022/02/06 01:21:13;;;;;;;9.18;4.28;;;7.40;96.70;;;;;;5012207;28;20054;-80
2022/02/06 01:26:23;;;;;;;12.85;5.15;;;7.30;96.80;;;;;;4995993;28;20050;-81
2022/02/06 01:29:02;;;;;;;9.27;4.05;;;7.30;96.80;;;;;;4979107;28;20070;-80
2022/02/06 01:31:47;;;;;;;11.43;4.32;;;7.40;96.90;;;;;;4982518;28;20038;-82
2022/02/06 01:34:18;;;;;;;8.02;4.32;;;7.30;96.80;;;;;;5011318;28;20120;-80
2022/02/06 01:39:57;;;;;;;11.25;4.45;;;7.40;96.90;;;;;;4997584;28;20144;-82
2022/02/06 01:42:37;;;;;;;8.95;3.90;;;7.40;96.90;;;;;;4982245;28;20046;-80
2022/02/06 01:46:03;;;;;;;14.48;4.53;;;7.40;96.90;;;;;;5011106;28;20050;-82
2022/02/06 02:10:13;;;;;;;9.70;3.97;;;7.40;97.00;;;;;;5014810;28;20266;-81
2022/02/06 02:21:32;;;;;;;8.95;3.40;;;7.40;97.10;;;;;;4998696;28;20042;-81
2022/02/06 02:43:07;;;;;;;8.52;3.00;;;7.50;97.10;;;;;;4971248;28;20093;-80
2022/02/06 02:48:15;;;;;;;8.07;3.15;;;7.50;97.20;;;;;;4984704;28;20060;-81
2022/02/06 02:50:47;;;;;;;4.80;2.83;;;7.50;97.20;;;;;;5014948;28;20045;-80
2022/02/06 02:53:22;;;;;;;8.88;3.63;;;7.50;97.20;;;;;;4998326;28;20045;-80
2022/02/06 02:56:16;;;;;;;7.13;3.55;;;7.50;97.20;;;;;;4952081;28;20115;-81
2022/02/06 02:58:51;;;;;;;6.85;3.38;;;7.50;97.30;;;;;;4973429;28;20048;-81
2022/02/06 03:04:06;;;;;;;8.98;4.00;;;7.50;97.30;;;;;;5000564;28;20045;-80
2022/02/06 03:06:33;;;;;;;8.50;2.88;;;7.50;97.30;;;;;;4981541;28;20064;-80
2022/02/06 03:09:03;;;;;;;6.88;3.88;;;7.60;97.40;;;;;;4965561;28;20052;-81
2022/02/06 03:11:31;;;;;;;8.40;3.58;;;7.50;97.40;;;;;;4966780;28;20046;-79
2022/02/06 03:16:33;;;;;;;8.30;3.80;;;7.50;97.40;;;;;;4998042;28;20048;-79
2022/02/06 03:19:53;;;;;;;7.07;3.50;;;7.50;97.40;;;;;;4967706;28;20050;-79
2022/02/06 03:21:52;;;;;;;5.82;3.30;;;7.50;97.50;;;;;;4998838;28;20108;-80
2022/02/06 03:24:24;;;;;;;6.95;3.60;;;7.50;97.50;;;;;;4998096;28;20466;-81
2022/02/06 03:26:54;;;;;;;9.10;4.10;;;7.50;97.50;;;;;;4982186;28;20042;-80
2022/02/06 03:29:24;;;;;;;8.98;3.60;;;7.50;97.50;;;;;;4981457;28;20053;-80
2022/02/06 03:31:53;;;;;;;9.85;4.18;;;7.50;97.50;;;;;;4981238;28;20042;-81
2022/02/06 03:34:20;;;;;;;7.80;3.17;;;7.50;97.60;;;;;;4997131;28;20478;-81
2022/02/06 03:36:47;;;;;;;6.32;3.95;;;7.50;97.60;;;;;;4965161;28;20042;-81
2022/02/06 03:39:16;;;;;;;8.82;3.90;;;7.50;97.60;;;;;;4981305;28;20049;-82
2022/02/06 03:42:03;;;;;;;7.88;3.35;;;7.50;97.60;;;;;;4981919;28;20046;-81
2022/02/06 03:44:46;;;;;;;8.45;2.95;;;7.50;97.60;;;;;;4973326;28;20062;-81
2022/02/06 03:47:23;;;;;;;7.57;2.95;;;7.50;97.60;;;;;;4956691;28;20042;-81
2022/02/06 03:52:24;;;;;;;6.88;3.50;;;7.50;97.70;;;;;;4957838;28;20376;-79
2022/02/06 03:54:51;;;;;;;8.20;2.47;;;7.50;97.70;;;;;;4941558;28;20070;-80
2022/02/06 03:57:18;;;;;;;5.68;3.50;;;7.50;97.70;;;;;;4973111;28;20047;-82
2022/02/06 03:59:46;;;;;;;8.32;3.03;;;7.50;97.70;;;;;;4973018;28;20066;-82
2022/02/06 04:02:13;;;;;;;5.88;2.63;;;7.40;97.70;;;;;;4957241;28;20051;-81
2022/02/06 04:04:39;;;;;;;5.70;3.40;;;7.50;97.90;;;;;;4956869;28;20059;-82
2022/02/06 04:07:10;;;;;;;6.03;2.90;;;7.50;97.70;;;;;;4956827;28;20146;-80
2022/02/06 04:09:44;;;;;;;7.90;2.97;;;7.50;97.80;;;;;;4973118;28;20127;-81
2022/02/06 04:12:18;;;;;;;7.78;3.25;;;7.40;97.80;;;;;;4942463;28;20050;-80
2022/02/06 04:14:57;;;;;;;6.35;2.85;;;7.50;97.90;;;;;;4962562;28;20054;-81
2022/02/06 04:17:29;;;;;;;7.93;3.17;;;7.50;97.90;;;;;;5012782;28;20050;-81
2022/02/06 04:19:57;;;;;;;;;;;7.50;97.90;;;;;;4965384;28;20065;-81
2022/02/06 04:22:24;;;;;;;5.57;2.45;;;7.50;97.90;;;;;;4980110;28;19921;-80
2022/02/06 04:24:51;;;;;;;5.40;2.75;;;7.40;97.80;;;;;;4980106;28;20426;-81
2022/02/06 04:27:21;;;;;;;4.90;2.63;;;7.50;97.90;;;;;;4948597;28;20052;-80
2022/02/06 04:29:53;;;;;;;6.80;2.80;;;7.50;97.90;;;;;;4996334;28;20052;-80
2022/02/06 04:32:21;;;;;;;7.32;3.30;;;7.50;97.90;;;;;;4980592;28;20053;-79
2022/02/06 04:34:53;;;;;;;6.38;3.25;;;7.40;97.80;;;;;;4980897;28;20042;-79
2022/02/06 05:23:03;;;;;;;11.77;4.28;;;7.60;98.00;;;;;;4966828;28;20045;-81
2022/02/06 05:30:51;;;;;;;10.10;4.82;;;7.70;98.10;;;;;;4981315;28;20141;-83
2022/02/06 05:33:21;;;;;;;9.45;4.10;;;7.70;98.10;;;;;;4995278;28;20133;-82
2022/02/06 05:35:51;;;;;;;8.18;4.30;;;7.70;98.10;;;;;;4963287;28;20052;-82
2022/02/06 05:38:19;;;;;;;10.77;4.63;;;7.80;98.10;;;;;;4979802;28;20057;-83
2022/02/06 05:40:48;;;;;;;10.18;4.95;;;7.80;98.10;;;;;;4978968;28;20042;-83
2022/02/06 05:43:16;;;;;;;7.75;4.43;;;7.80;98.10;;;;;;4992643;28;20064;-83
2022/02/06 05:45:43;;;;;;;8.63;4.15;;;7.80;98.10;;;;;;4998454;28;20124;-82
2022/02/06 05:48:14;;;;;;;10.80;4.88;;;7.80;98.10;;;;;;4999205;28;20049;-83
2022/02/06 05:50:43;;;;;;;9.77;4.80;;;7.90;98.10;;;;;;4998017;28;20033;-83
2022/02/06 05:53:11;;;;;;;10.82;5.75;;;7.90;98.10;;;;;;4998767;28;20053;-83
2022/02/06 05:55:39;;;;;;;9.82;4.82;;;7.90;98.10;;;;;;5014131;28;20045;-82
2022/02/06 05:58:06;;;;;;;14.95;5.88;;;7.90;98.10;;;;;;4998355;28;20045;-82
2022/02/06 06:00:33;;;;;;;11.45;5.53;;;7.90;98.10;;;;;;5014739;28;20044;-82
2022/02/06 06:03:01;;;;;;;11.98;5.13;;;8.00;98.10;;;;;;5032349;28;20473;-83
2022/02/06 06:05:28;;;;;;;9.50;5.20;;;7.90;98.10;;;;;;5014585;28;20049;-83
2022/02/06 06:07:56;;;;;;;12.27;5.47;;;8.00;98.10;;;;;;4997907;28;20049;-83
2022/02/06 06:10:25;;;;;;;10.65;5.85;;;8.00;98.10;;;;;;4999384;28;20046;-84
2022/02/06 06:12:52;;;;;;;13.18;5.97;;;8.00;98.10;;;;;;4998511;28;20115;-82
2022/02/06 06:15:20;;;;;;;10.05;5.18;;;8.00;98.10;;;;;;4998124;28;20049;-82
2022/02/06 06:17:47;;;;;;;13.73;5.50;;;8.00;98.10;;;;;;4997520;28;20399;-82
2022/02/06 06:20:15;;;;;;;9.25;4.70;;;8.00;98.10;;;;;;4997209;28;20049;-82
2022/02/06 06:22:42;;;;;;;9.65;4.93;;;8.00;98.10;;;;;;4998035;28;20148;-82
2022/02/06 06:25:13;;;;;;;10.45;5.63;;;8.00;98.10;;;;;;4998424;28;20436;-82
2022/02/06 06:27:40;;;;;;;13.77;5.63;;;8.00;98.10;;;;;;4997690;28;20046;-82
2022/02/06 06:30:10;;;;;;;11.40;5.60;;;8.00;98.10;;;;;;4997692;28;20613;-79
2022/02/06 06:32:43;;;;;;;10.80;5.32;;;8.10;98.20;;;;;;4981301;28;20444;-79
2022/02/06 06:35:10;;;;;;;9.82;4.90;;;8.10;98.20;;;;;;5014622;28;20037;-80
2022/02/06 06:37:39;;;;;;;10.75;6.18;;;8.10;98.20;;;;;;4997882;28;20099;-81
2022/02/06 06:40:07;;;;;;;12.63;6.57;;;8.10;98.20;;;;;;5014078;28;20450;-80
2022/02/06 06:42:34;;;;;;;11.20;5.88;;;8.10;98.20;;;;;;4998079;28;20061;-81
2022/02/06 06:45:01;;;;;;;9.43;5.63;;;8.10;98.20;;;;;;5014332;28;20064;-81
2022/02/06 06:47:28;;;;;;;8.32;5.03;;;8.10;98.20;;;;;;4997556;28;20055;-80
2022/02/06 06:49:56;;;;;;;9.07;5.68;;;8.10;98.20;;;;;;4997870;28;20049;-81
2022/02/06 06:52:23;;;;;;;11.38;5.88;;;8.10;98.20;;;;;;4997590;28;20056;-81
2022/02/06 06:54:59;;;;;;;10.10;5.18;;;8.00;98.20;;;;;;5013825;28;20056;-81
2022/02/06 06:57:36;;;;;;;7.93;4.88;;;8.00;98.20;;;;;;5013707;28;20045;-80
2022/02/06 07:02:32;;;;;;;11.48;6.00;;;8.10;98.20;;;;;;5001297;28;20374;-81
2022/02/06 07:05:04;;;;;;;9.20;4.68;;;8.00;98.20;;;;;;5001472;28;20037;-80
2022/02/06 07:07:32;;;;;;;8.10;4.70;;;8.10;98.20;;;;;;5001357;28;20053;-81
2022/02/06 07:10:01;;;;;;;6.80;4.45;;;8.10;98.20;;;;;;5001163;28;20375;-78
2022/02/06 07:12:28;;;;;;;9.85;5.72;;;8.10;98.20;;;;;;5017579;28;20401;-78
2022/02/06 07:14:56;;;;;;;8.55;4.85;;;8.00;98.20;;;;;;5018558;28;20505;-79
2022/02/06 07:17:23;;;;;;;9.95;4.93;;;8.00;98.20;;;;;;5001596;28;20077;-80
2022/02/06 07:19:50;;;;;;;8.05;4.43;;;8.00;98.20;;;;;;5001267;28;20156;-81
2022/02/06 07:22:21;;;;;;;10.10;4.65;;;8.00;98.20;;;;;;5001277;28;20118;-81
2022/02/06 07:24:49;;;;;;;7.15;4.22;;;8.00;98.20;;;;;;5017400;28;20042;-81
2022/02/06 07:27:26;;;;;;;8.93;4.35;;;8.10;98.30;;;;;;5017995;28;20063;-81
2022/02/06 07:29:56;;;;;;;9.30;4.40;;;8.00;98.20;;;;;;5016981;28;20049;-82
2022/02/06 07:32:24;;;;;;;7.53;4.20;;;8.00;98.30;;;;;;5000955;28;20158;-82
2022/02/06 07:34:51;;;;;;;10.32;4.80;;;8.10;98.30;;;;;;5016488;28;20045;-81
2022/02/06 07:37:18;;;;;;;9.38;4.63;;;8.00;98.20;;;;;;5000583;28;20048;-82
2022/02/06 07:39:45;;;;;;;8.38;4.57;;;8.00;98.20;;;;;;5000966;28;20099;-79
2022/02/06 07:42:13;;;;;;;8.98;4.43;;;8.00;98.20;;;;;;5000797;28;20038;-81
2022/02/06 07:44:51;;;;;;;9.57;4.45;;;8.00;98.20;;;;;;5002314;28;20050;-87
2022/02/06 07:47:23;;;;;;;9.43;4.20;;;8.00;98.20;;;;;;5019029;28;20068;-88
2022/02/06 07:49:53;;;;;;;7.85;4.43;;;8.00;98.20;;;;;;5017577;28;20310;-83
2022/02/06 07:52:22;;;;;;;8.93;4.18;;;8.10;98.30;;;;;;5016451;28;20072;-82
2022/02/06 07:54:49;;;;;;;10.05;5.38;;;8.10;98.50;;;;;;5000815;28;20053;-82
2022/02/06 07:57:17;;;;;;;7.75;4.88;;;8.10;98.30;;;;;;5001205;28;20152;-82
2022/02/06 07:59:47;;;;;;;10.27;5.38;;;8.10;98.30;;;;;;5001363;28;20439;-86
2022/02/06 08:02:15;;;;;;;9.73;5.40;;;8.10;98.30;;;;;;5016308;28;20049;-89
2022/02/06 08:04:45;;;;;;;7.43;4.15;;;8.10;98.30;;;;;;5000894;28;20394;-86
2022/02/06 08:07:18;;;;;;;8.90;4.53;;;8.10;98.30;;;;;;5017395;28;20055;-88
2022/02/06 08:12:14;;;;;;;7.40;4.10;;;8.10;98.30;;;;;;5016413;28;20054;-88
2022/02/06 08:14:52;;;;;;;8.23;4.72;;;8.10;98.30;;;;;;5001182;28;20053;-86
2022/02/06 08:17:27;;;;;;;7.90;4.00;;;8.10;98.30;;;;;;5016891;28;20509;-87
2022/02/06 08:19:56;;;;;;;7.53;4.20;;;8.10;98.30;;;;;;5016889;28;20053;-85
2022/02/06 08:22:23;;;;;;;8.15;4.28;;;8.20;98.30;;;;;;5000718;28;20071;-85
2022/02/06 08:24:51;;;;;;;10.35;4.18;;;8.20;98.30;;;;;;5000472;28;20049;-84
2022/02/06 08:27:21;;;;;;;10.20;5.30;;;8.20;98.30;;;;;;5017555;28;20139;-84
2022/02/06 08:29:48;;;;;;;10.38;5.07;;;8.20;98.30;;;;;;5000407;28;20049;-85
2022/02/06 08:32:20;;;;;;;8.93;5.15;;;8.20;98.30;;;;;;5000409;28;20049;-84
2022/02/06 08:34:49;;;;;;;9.82;4.57;;;8.20;98.30;;;;;;5015920;28;20041;-85
2022/02/06 08:37:16;;;;;;;7.85;4.22;;;8.20;98.30;;;;;;5016136;28;20401;-79
2022/02/06 08:39:45;;;;;;;6.93;3.92;;;8.20;98.30;;;;;;4999555;28;20153;-83
2022/02/06 08:42:14;;;;;;;8.27;5.10;;;8.20;98.30;;;;;;5000103;28;20042;-84
2022/02/06 08:44:45;;;;;;;9.48;4.78;;;8.30;98.30;;;;;;5016336;28;20045;-84
2022/02/06 08:47:15;;;;;;;9.00;4.95;;;8.30;98.60;;;;;;5016176;28;20481;-85
2022/02/06 08:49:45;;;;;;;7.57;4.73;;;8.30;98.30;;;;;;5016512;28;20373;-83
2022/02/06 08:52:13;;;;;;;8.32;5.38;;;8.30;98.30;;;;;;4999357;28;20041;-82
2022/02/06 08:54:41;;;;;;;8.45;3.90;;;8.30;98.30;;;;;;4999553;28;20038;-84
2022/02/06 08:57:25;;;;;;;6.78;3.95;;;8.30;98.30;;;;;;5000410;28;20041;-83
2022/02/06 08:59:55;;;;;;;5.93;3.60;;;8.30;98.30;;;;;;5015700;28;20042;-81
2022/02/06 09:02:23;;;;;;;6.03;3.22;;;8.30;98.30;;;;;;4999672;28;20478;-81
2022/02/06 09:04:52;;;;;;;4.82;2.85;;;8.30;98.30;;;;;;5016025;28;20052;-82
2022/02/06 09:07:21;;;;;;;5.10;2.53;;;8.30;98.30;;;;;;5015555;28;20072;-80
2022/02/06 09:09:55;;;;;;;4.72;2.90;;;8.20;98.30;;;;;;4999882;28;20695;-79
2022/02/06 09:12:23;;;;;;;4.68;2.45;;;8.30;98.30;;;;;;5000175;28;20140;-81
2022/02/06 09:14:50;;;;;;;3.92;2.00;;;8.30;98.30;;;;;;5015922;28;20072;-82
2022/02/06 09:17:17;;;;;;;3.10;1.95;;;8.30;98.30;;;;;;5015111;28;20473;-80
2022/02/06 09:19:46;;;;;;;4.15;2.33;;;8.20;98.30;;;;;;5015263;28;20459;-80
2022/02/06 09:22:14;;;;;;;4.97;2.03;;;8.20;98.30;;;;;;4999520;28;20087;-83
2022/02/06 09:24:42;;;;;;;4.20;2.50;;;8.20;98.30;;;;;;5014994;28;20049;-82
2022/02/06 09:27:10;;;;;;;4.95;2.45;;;8.20;98.30;;;;;;5015068;28;20049;-80
2022/02/06 09:29:40;;;;;;;3.72;1.90;;;8.20;98.40;;;;;;4998972;28;20404;-79
2022/02/06 09:37:26;;;;;;;3.63;1.98;;;8.20;98.40;;;;;;5032569;28;20084;-80
2022/02/06 09:40:01;;;;;;;3.97;2.35;;;8.30;98.40;;;;;;4983614;28;20041;-79
2022/02/06 09:42:29;;;;;;;;;;;8.30;98.40;;;;;;5015385;28;20048;-82
2022/02/06 09:44:58;;;;;;;3.35;2.03;;;8.20;98.40;;;;;;5014818;28;19974;-82
2022/02/06 09:47:28;;;;;;;5.18;2.53;;;8.30;98.40;;;;;;5015096;28;20049;-81
2022/02/06 09:49:56;;;;;;;5.07;2.95;;;8.30;98.40;;;;;;5014860;28;20378;-81
2022/02/06 09:52:28;;;;;;;5.13;3.05;;;8.30;98.40;;;;;;5014795;28;20045;-81
2022/02/06 09:55:05;;;;;;;5.82;2.75;;;8.30;98.40;;;;;;5032149;28;20418;-81
2022/02/06 09:57:50;;;;;;;7.22;3.03;;;8.30;98.40;;;;;;5014890;28;20048;-82
2022/02/06 10:00:20;;;;;;;6.97;2.83;;;8.30;98.40;;;;;;5000900;28;20073;-80
2022/02/06 10:02:51;;;;;;;5.28;3.42;;;8.30;98.50;;;;;;4998464;28;20045;-84
2022/02/06 10:05:19;;;;;;;8.23;3.60;;;8.30;98.50;;;;;;5015182;28;20046;-83
2022/02/06 10:07:59;;;;;;;6.60;3.28;;;8.30;98.50;;;;;;5014790;28;20474;-83
2022/02/06 10:10:27;;;;;;;8.05;3.38;;;8.40;98.50;;;;;;5014823;28;20053;-83
2022/02/06 10:12:59;;;;;;;7.07;3.03;;;8.40;98.50;;;;;;4997850;28;20060;-81
2022/02/06 10:15:26;;;;;;;6.65;3.38;;;8.40;98.50;;;;;;4999881;28;20103;-81
2022/02/06 10:17:53;;;;;;;4.25;2.45;;;8.40;98.60;;;;;;4998882;28;20046;-82
2022/02/06 10:20:29;;;;;;;6.80;2.83;;;8.40;98.60;;;;;;4984517;28;20048;-81
2022/02/06 10:23:09;;;;;;;4.55;2.70;;;8.40;98.60;;;;;;5004182;28;20060;-83
2022/02/06 10:25:47;;;;;;;4.20;2.28;;;8.40;98.60;;;;;;5015852;28;20042;-82
2022/02/06 10:31:05;;;;;;;4.63;2.05;;;8.40;98.60;;;;;;5000738;28;20115;-80
2022/02/06 10:34:02;;;;;;;4.10;1.98;;;8.40;98.60;;;;;;5014671;28;20148;-81
2022/02/06 10:36:35;;;;;;;5.88;1.65;;;8.50;98.60;;;;;;5001488;28;20061;-82
2022/02/06 10:39:06;;;;;;;3.42;1.60;;;8.40;98.60;;;;;;5018532;28;20060;-80
2022/02/06 10:41:34;;;;;;;2.40;1.60;;;8.40;98.60;;;;;;5017956;28;20056;-81
2022/02/06 10:44:07;;;;;;;3.72;1.70;;;8.40;98.60;;;;;;5001545;28;20049;-80
2022/02/06 10:46:53;;;;;;;4.70;1.90;;;8.50;98.60;;;;;;5018262;28;20053;-80
2022/02/06 10:49:22;;;;;;;2.83;1.40;;;8.40;98.60;;;;;;4986222;28;20136;-82
2022/02/06 10:52:00;;;;;;;3.33;1.63;;;8.40;98.60;;;;;;5001940;28;20053;-81
2022/02/06 10:54:27;;;;;;;2.92;1.40;;;8.50;98.60;;;;;;5017909;28;20048;-82
2022/02/06 10:57:15;;;;;;;3.67;1.48;;;8.40;98.60;;;;;;5018090;28;20063;-81
2022/02/06 10:59:53;;;;;;;4.75;1.77;;;8.50;98.60;;;;;;5002371;28;20450;-81
2022/02/06 11:02:27;;;;;;;3.25;1.65;;;8.40;98.60;;;;;;5002245;28;20037;-80
2022/02/06 11:05:22;;;;;;;3.95;2.47;;;8.40;98.60;;;;;;5017893;28;20057;-80
2022/02/06 11:08:01;;;;;;;3.35;1.70;;;8.40;98.60;;;;;;5001672;28;20053;-80
2022/02/06 11:10:31;;;;;;;2.88;1.20;;;8.40;98.60;;;;;;5001307;28;20077;-80
2022/02/06 11:13:04;;;;;;;2.63;1.42;;;8.40;98.60;;;;;;5036390;28;20497;-79
2022/02/06 11:15:33;;;;;;;;;;;8.50;98.60;;;;;;5018554;28;20051;-80
2022/02/06 11:18:12;;;;;;;4.65;1.55;;;8.40;98.60;;;;;;5018117;28;20369;-81
2022/02/06 11:21:03;;;;;;;3.30;1.70;;;8.40;98.60;;;;;;5017680;28;20041;-79
2022/02/06 11:23:39;;;;;;;3.22;1.55;;;8.40;98.60;;;;;;5000920;28;20508;-79
2022/02/06 11:26:10;;;;;;;3.90;1.50;;;8.40;98.60;;;;;;5017786;28;20095;-80
2022/02/06 11:28:38;;;;;;;6.38;2.10;;;8.40;98.70;;;;;;5000815;28;20054;-81
2022/02/06 11:31:06;;;;;;;5.07;2.92;;;8.40;98.70;;;;;;5017476;28;20505;-79
2022/02/06 11:33:36;;;;;;;3.15;1.60;;;8.40;98.70;;;;;;4985767;28;20049;-78
2022/02/06 11:36:14;;;;;;;2.28;1.52;;;8.40;99.00;;;;;;5000964;28;20073;-79
2022/02/06 11:44:57;;;;;;;3.38;2.42;;;8.40;98.80;;;;;;5034459;28;20057;-80
2022/02/06 11:47:31;;;;;;;4.60;1.98;;;8.50;98.80;;;;;;4998766;28;20052;-79
2022/02/06 11:50:07;;;;;;;1.77;1.00;;;8.50;98.80;;;;;;5000628;28;20046;-79
2022/02/06 11:52:51;;;;;;;3.75;1.95;;;8.50;98.80;;;;;;5002027;28;20056;-80
2022/02/06 11:55:33;;;;;;;1.30;0.70;;;8.50;98.80;;;;;;5033317;28;20045;-82
2022/02/06 11:58:26;;;;;;;0.75;0.40;;;8.40;98.40;;;;;;5016942;28;20048;-82
2022/02/06 12:01:05;;;;;;;;;;;8.10;98.10;;;;;;5000728;28;20088;-81
2022/02/06 12:03:53;;;;;;;0.30;0.10;;;7.80;98.10;;;;;;5015771;28;19984;-82
2022/02/06 12:06:24;;;;;;;1.15;0.10;;;7.50;98.10;;;;;;5016341;28;20049;-82
2022/02/06 12:09:01;;;;;;;0.45;0.00;;;7.30;98.30;;;;;;5017072;28;20084;-84
2022/02/06 12:11:34;;;;;;;0.00;0.00;;;7.10;98.40;;;;;;5012971;28;20512;-80
2022/02/06 12:14:13;;;;;;;0.38;0.10;;;7.00;98.80;;;;;;4999574;28;20041;-81
2022/02/06 12:17:08;;;;;;;1.65;0.20;;;6.90;98.60;;;;;;5015913;28;20544;-79
2022/02/06 12:19:37;;;;;;;0.38;0.10;;;6.80;98.80;;;;;;4991890;28;20478;-82
2022/02/06 12:22:26;;;;;;;0.17;0.03;;;6.70;99.10;;;;;;4980361;28;20080;-82
2022/02/06 12:25:14;;;;;;;0.68;0.10;;;6.70;99.00;;;;;;4980409;28;20085;-81
2022/02/06 12:27:41;;;;;;;0.95;0.25;;;6.70;99.30;;;;;;4989982;28;20169;-81
2022/02/06 12:30:08;;;;;;;0.80;0.30;;;6.70;99.10;;;;;;4980778;28;20145;-81
2022/02/06 12:32:39;;;;;;;1.05;0.25;;;6.60;99.10;;;;;;4980391;28;20068;-81
2022/02/06 12:37:55;;;;;;;2.63;0.60;;;6.70;99.30;;;;;;4985644;28;20474;-81
2022/02/06 12:40:26;;;;;;;1.27;0.30;;;6.70;99.20;;;;;;4980337;28;20064;-81
2022/02/06 12:43:02;;;;;;;1.97;0.50;;;6.70;99.20;;;;;;5012665;28;20038;-81
2022/02/06 12:45:31;;;;;;;2.17;0.55;;;6.70;99.20;;;;;;4980305;28;20505;-82
2022/02/06 12:48:06;;;;;;;4.20;0.60;;;6.70;99.20;;;;;;4996349;28;20049;-82
2022/02/06 12:50:36;;;;;;;1.88;0.57;;;6.70;99.20;;;;;;4996305;28;20064;-83
2022/02/06 12:53:06;;;;;;;1.42;0.47;;;6.70;99.10;;;;;;4979446;28;20054;-79
2022/02/06 12:55:36;;;;;;;2.40;0.45;;;6.70;99.10;;;;;;4992464;28;20046;-81
2022/02/06 12:58:07;;;;;;;2.55;0.50;;;6.70;99.20;;;;;;4975659;28;20050;-78
2022/02/06 13:00:44;;;;;;;1.27;0.40;;;6.70;99.10;;;;;;4992466;28;20069;-79
2022/02/06 13:03:36;;;;;;;3.15;0.40;;;6.70;99.10;;;;;;4992287;28;20142;-80
2022/02/06 13:06:09;;;;;;;1.23;0.20;;;6.80;99.20;;;;;;4976029;28;20042;-80
2022/02/06 13:08:38;;;;;;;;;;;6.80;99.20;;;;;;4992769;28;20065;-79
2022/02/06 13:11:12;;;;;;;1.65;0.40;;;6.90;99.30;;;;;;4992586;28;19929;-82
2022/02/06 13:14:03;;;;;;;3.80;0.35;;;6.90;99.30;;;;;;4984056;28;20042;-83
2022/02/06 13:22:10;;;;;;;3.38;0.40;;;7.00;99.10;;;;;;5000619;28;20781;-81
2022/02/06 13:27:46;;;;;;;3.55;0.60;;;7.00;99.00;;;;;;4998130;28;20141;-82
2022/02/06 13:30:31;;;;;;;2.63;0.30;;;7.10;99.00;;;;;;5006217;28;20483;-82
2022/02/06 13:33:08;;;;;;;2.53;0.40;;;7.10;99.00;;;;;;4999350;28;20490;-84
2022/02/06 13:35:53;;;;;;;2.65;0.50;;;7.10;99.00;;;;;;4975924;28;20092;-83
2022/02/06 13:38:21;;;;;;;3.28;0.73;;;7.20;99.00;;;;;;4976154;28;20070;-84
2022/02/06 13:40:55;;;;;;;2.08;0.32;;;7.20;99.00;;;;;;5001592;28;20038;-81
2022/02/06 13:43:25;;;;;;;2.63;0.68;;;7.20;99.00;;;;;;5005470;28;20110;-85
2022/02/06 13:45:57;;;;;;;3.97;0.50;;;7.20;98.90;;;;;;4990498;28;20078;-85
2022/02/06 13:48:26;;;;;;;3.17;0.60;;;7.20;98.90;;;;;;4984135;28;20133;-85
2022/02/06 13:51:00;;;;;;;2.88;0.50;;;7.20;98.90;;;;;;4982597;28;20122;-84
2022/02/06 13:53:29;;;;;;;3.58;0.70;;;7.30;98.90;;;;;;5001588;28;20069;-84
2022/02/06 13:56:04;;;;;;;6.03;0.88;;;7.30;98.90;;;;;;4973705;28;20105;-82
2022/02/06 13:58:32;;;;;;;1.92;0.50;;;7.40;98.90;;;;;;4988770;28;20057;-83
2022/02/06 14:01:04;;;;;;;4.40;0.50;;;7.40;98.90;;;;;;5000463;28;20101;-83
2022/02/06 14:03:46;;;;;;;2.40;0.50;;;7.50;98.90;;;;;;4980479;28;20105;-84
2022/02/06 14:06:41;;;;;;;7.60;0.70;;;7.60;98.80;;;;;;4978388;28;20051;-85
2022/02/06 14:09:28;;;;;;;3.97;0.75;;;7.60;98.70;;;;;;4962409;28;20054;-84
2022/02/06 14:12:01;;;;;;;4.85;0.80;;;7.70;98.70;;;;;;4995518;28;20441;-85
2022/02/06 14:14:30;;;;;;;8.07;0.70;;;7.70;98.70;;;;;;5012238;28;20141;-84
2022/02/06 14:17:29;;;;;;;6.80;0.55;;;7.70;98.60;;;;;;4966231;28;20074;-85
2022/02/06 14:20:24;;;;;;;3.80;0.75;;;7.70;98.60;;;;;;4972098;28;20042;-84
2022/02/06 14:22:55;;;;;;;5.88;0.60;;;7.70;98.60;;;;;;4985322;28;20046;-82
2022/02/06 14:25:39;;;;;;;2.80;0.40;;;7.70;98.50;;;;;;5008416;28;20042;-90
2022/02/06 14:28:24;;;;;;;3.08;0.50;;;7.80;98.50;;;;;;4968392;28;20077;-90
2022/02/06 14:30:57;;;;;;;4.03;0.60;;;7.80;98.50;;;;;;5000396;28;20133;-87
2022/02/06 14:33:28;;;;;;;3.45;0.70;;;7.80;98.50;;;;;;4984252;28;20516;-87
2022/02/06 14:36:16;;;;;;;4.28;0.70;;;7.80;98.40;;;;;;4999320;28;20050;-84
2022/02/06 14:38:58;;;;;;;5.85;0.90;;;7.90;98.40;;;;;;4984186;28;20038;-81
2022/02/06 14:41:59;;;;;;;4.10;0.95;;;7.90;98.40;;;;;;4985266;28;20096;-88
2022/02/06 14:44:27;;;;;;;3.25;0.50;;;7.90;98.40;;;;;;4981872;28;20065;-81
2022/02/06 14:46:54;;;;;;;5.03;0.60;;;8.00;98.50;;;;;;4983044;28;20084;-87
2022/02/06 14:49:27;;;;;;;5.45;0.77;;;8.10;98.30;;;;;;4998854;28;20560;-86
2022/02/06 14:51:54;;;;;;;4.68;0.90;;;8.20;98.20;;;;;;4967094;28;20058;-84
2022/02/06 14:54:30;;;;;;;5.22;0.80;;;8.20;98.00;;;;;;4967102;28;20049;-83
2022/02/06 14:56:58;;;;;;;2.85;0.50;;;8.20;98.00;;;;;;4999266;28;20819;-80
2022/02/06 14:59:25;;;;;;;4.05;0.75;;;8.20;97.90;;;;;;4966643;28;20517;-80
2022/02/06 15:01:53;;;;;;;4.47;0.60;;;8.20;97.90;;;;;;4982300;28;20060;-82
2022/02/06 15:04:25;;;;;;;3.95;0.50;;;8.20;97.90;;;;;;4967238;28;20070;-83
2022/02/06 15:06:56;;;;;;;6.47;0.80;;;8.20;97.90;;;;;;4998049;28;20046;-82
2022/02/06 15:09:23;;;;;;;3.33;0.82;;;8.20;97.90;;;;;;4997706;28;20081;-81
2022/02/06 15:11:50;;;;;;;5.40;1.08;;;8.20;97.80;;;;;;4998121;28;20062;-84
2022/02/06 15:14:20;;;;;;;2.50;0.43;;;8.20;98.10;;;;;;4998816;28;20038;-86
2022/02/06 15:16:49;;;;;;;3.03;0.60;;;8.20;97.70;;;;;;4998798;28;20042;-89
2022/02/06 15:19:48;;;;;;;5.88;0.75;;;8.30;97.70;;;;;;4967088;28;20116;-91
2022/02/06 15:22:49;;;;;;;2.63;0.47;;;8.20;97.60;;;;;;4984570;28;20042;-90
2022/02/06 15:26:06;;;;;;;2.60;0.70;;;8.20;97.70;;;;;;4974178;28;20046;-86
2022/02/06 15:28:34;;;;;;;3.60;0.63;;;8.20;97.60;;;;;;4998298;28;20840;-84
2022/02/06 15:31:01;;;;;;;2.67;0.70;;;8.20;97.50;;;;;;4981751;28;20045;-82
2022/02/06 15:33:30;;;;;;;2.90;0.55;;;8.10;97.40;;;;;;4981773;28;20141;-90
2022/02/06 15:36:06;;;;;;;4.90;0.63;;;8.00;97.40;;;;;;4982794;28;20410;-83
2022/02/06 15:38:35;;;;;;;3.38;0.88;;;7.90;97.40;;;;;;4998042;28;20121;-82
2022/02/06 15:41:03;;;;;;;2.83;0.77;;;7.90;97.40;;;;;;4981878;28;20044;-80
2022/02/06 15:43:30;;;;;;;5.35;0.88;;;7.80;97.50;;;;;;4981847;28;20074;-88
2022/02/06 15:45:58;;;;;;;2.95;0.60;;;7.80;97.50;;;;;;4966546;28;20091;-80
2022/02/06 15:48:27;;;;;;;3.20;0.77;;;7.80;97.50;;;;;;4966688;28;20390;-86
2022/02/06 15:50:54;;;;;;;2.63;0.70;;;7.80;97.50;;;;;;4966630;28;20127;-86
2022/02/06 15:53:22;;;;;;;4.30;0.98;;;7.70;97.40;;;;;;4998161;28;20482;-86
2022/02/06 15:55:49;;;;;;;3.13;0.60;;;7.70;97.40;;;;;;5005079;28;20049;-86
2022/02/06 15:58:16;;;;;;;6.28;1.15;;;7.70;97.40;;;;;;5014906;28;20064;-84
2022/02/06 16:00:46;;;;;;;1.65;0.80;;;7.70;97.60;;;;;;4998110;28;20355;-82
2022/02/06 16:03:14;;;;;;;4.10;0.70;;;7.70;97.30;;;;;;5013745;28;20049;-81
2022/02/06 16:05:42;;;;;;;2.88;0.57;;;7.70;97.30;;;;;;5013156;28;20482;-81
2022/02/06 16:08:09;;;;;;;6.50;1.27;;;7.70;97.30;;;;;;4981373;28;20085;-82